sensor_id;sensor_type;location;lat;lon;timestamp;P1;durP1;ratioP1;P2;durP2;ratioP2
3779;SDS011;1905;52.482;9.802;2023-09-07T00:01:38;9.07;;;3.97;;
3779;SDS011;1905;52.482;9.802;2023-09-07T00:04:07;10.20;;;4.30;;
3779;SDS011;1905;52.482;9.802;2023-09-07T00:06:35;9.33;;;4.03;;
3779;SDS011;1905;52.482;9.802;2023-09-07T00:09:03;10.97;;;4.60;;
3779;SDS011;1905;52.482;9.802;2023-09-07T00:11:32;9.40;;;4.33;;
3779;SDS011;1905;52.482;9.802;2023-09-07T00:14:00;10.00;;;4.17;;
3779;SDS011;1905;52.482;9.802;2023-09-07T00:16:27;9.87;;;3.93;;
3779;SDS011;1905;52.482;9.802;2023-09-07T00:18:56;9.70;;;4.53;;
3779;SDS011;1905;52.482;9.802;2023-09-07T00:21:25;10.50;;;4.57;;
3779;SDS011;1905;52.482;9.802;2023-09-07T00:23:53;11.80;;;4.50;;
3779;SDS011;1905;52.482;9.802;2023-09-07T00:26:21;10.13;;;4.43;;
3779;SDS011;1905;52.482;9.802;2023-09-07T00:28:49;10.77;;;5.23;;
3779;SDS011;1905;52.482;9.802;2023-09-07T00:31:16;13.70;;;4.47;;
3779;SDS011;1905;52.482;9.802;2023-09-07T00:33:44;10.43;;;4.80;;
3779;SDS011;1905;52.482;9.802;2023-09-07T00:36:12;10.87;;;5.17;;
3779;SDS011;1905;52.482;9.802;2023-09-07T00:38:41;11.00;;;4.73;;
3779;SDS011;1905;52.482;9.802;2023-09-07T00:41:08;10.73;;;4.70;;
3779;SDS011;1905;52.482;9.802;2023-09-07T00:43:36;8.60;;;4.23;;
3779;SDS011;1905;52.482;9.802;2023-09-07T00:46:06;8.60;;;3.57;;
3779;SDS011;1905;52.482;9.802;2023-09-07T00:48:35;10.63;;;4.13;;
3779;SDS011;1905;52.482;9.802;2023-09-07T00:51:03;9.40;;;4.00;;
3779;SDS011;1905;52.482;9.802;2023-09-07T00:53:30;10.33;;;4.50;;
3779;SDS011;1905;52.482;9.802;2023-09-07T00:56:00;10.50;;;4.90;;
3779;SDS011;1905;52.482;9.802;2023-09-07T00:58:29;9.40;;;4.23;;
3779;SDS011;1905;52.482;9.802;2023-09-07T01:00:58;8.90;;;4.03;;
3779;SDS011;1905;52.482;9.802;2023-09-07T01:03:26;12.70;;;5.03;;
3779;SDS011;1905;52.482;9.802;2023-09-07T01:05:56;8.63;;;4.17;;
3779;SDS011;1905;52.482;9.802;2023-09-07T01:08:31;12.20;;;4.20;;
3779;SDS011;1905;52.482;9.802;2023-09-07T01:11:13;8.10;;;3.57;;
3779;SDS011;1905;52.482;9.802;2023-09-07T01:13:41;8.57;;;4.40;;
3779;SDS011;1905;52.482;9.802;2023-09-07T01:16:10;10.53;;;5.17;;
3779;SDS011;1905;52.482;9.802;2023-09-07T01:18:39;8.77;;;4.07;;
3779;SDS011;1905;52.482;9.802;2023-09-07T01:21:08;16.10;;;5.30;;
3779;SDS011;1905;52.482;9.802;2023-09-07T01:23:41;10.77;;;4.83;;
3779;SDS011;1905;52.482;9.802;2023-09-07T01:26:10;10.50;;;4.93;;
3779;SDS011;1905;52.482;9.802;2023-09-07T01:28:38;10.67;;;4.90;;
3779;SDS011;1905;52.482;9.802;2023-09-07T01:31:06;11.60;;;4.70;;
3779;SDS011;1905;52.482;9.802;2023-09-07T01:33:34;10.87;;;4.40;;
3779;SDS011;1905;52.482;9.802;2023-09-07T01:36:01;13.00;;;4.80;;
3779;SDS011;1905;52.482;9.802;2023-09-07T01:38:30;10.93;;;5.57;;
3779;SDS011;1905;52.482;9.802;2023-09-07T01:40:59;10.73;;;5.60;;
3779;SDS011;1905;52.482;9.802;2023-09-07T01:43:27;10.60;;;4.40;;
3779;SDS011;1905;52.482;9.802;2023-09-07T01:45:56;9.40;;;4.90;;
3779;SDS011;1905;52.482;9.802;2023-09-07T01:48:24;10.50;;;4.60;;
3779;SDS011;1905;52.482;9.802;2023-09-07T01:50:52;10.03;;;4.90;;
3779;SDS011;1905;52.482;9.802;2023-09-07T01:53:21;9.53;;;4.80;;
3779;SDS011;1905;52.482;9.802;2023-09-07T01:55:50;11.13;;;5.40;;
3779;SDS011;1905;52.482;9.802;2023-09-07T01:58:19;10.43;;;4.90;;
3779;SDS011;1905;52.482;9.802;2023-09-07T02:00:46;11.00;;;4.80;;
3779;SDS011;1905;52.482;9.802;2023-09-07T02:03:14;12.10;;;5.50;;
3779;SDS011;1905;52.482;9.802;2023-09-07T02:05:42;9.97;;;5.13;;
3779;SDS011;1905;52.482;9.802;2023-09-07T02:08:11;10.40;;;5.07;;
3779;SDS011;1905;52.482;9.802;2023-09-07T02:10:39;12.30;;;5.10;;
3779;SDS011;1905;52.482;9.802;2023-09-07T02:13:06;14.60;;;5.47;;
3779;SDS011;1905;52.482;9.802;2023-09-07T02:15:38;10.50;;;5.37;;
3779;SDS011;1905;52.482;9.802;2023-09-07T02:18:06;11.40;;;5.83;;
3779;SDS011;1905;52.482;9.802;2023-09-07T02:20:34;12.97;;;5.07;;
3779;SDS011;1905;52.482;9.802;2023-09-07T02:23:01;13.70;;;5.50;;
3779;SDS011;1905;52.482;9.802;2023-09-07T02:25:29;15.23;;;5.10;;
3779;SDS011;1905;52.482;9.802;2023-09-07T02:27:57;12.07;;;5.70;;
3779;SDS011;1905;52.482;9.802;2023-09-07T02:30:25;13.60;;;6.60;;
3779;SDS011;1905;52.482;9.802;2023-09-07T02:32:55;15.60;;;5.90;;
3779;SDS011;1905;52.482;9.802;2023-09-07T02:35:23;11.93;;;4.83;;
3779;SDS011;1905;52.482;9.802;2023-09-07T02:37:50;11.20;;;6.10;;
3779;SDS011;1905;52.482;9.802;2023-09-07T02:40:18;11.50;;;6.00;;
3779;SDS011;1905;52.482;9.802;2023-09-07T02:42:46;10.40;;;5.30;;
3779;SDS011;1905;52.482;9.802;2023-09-07T02:45:13;11.93;;;6.10;;
3779;SDS011;1905;52.482;9.802;2023-09-07T02:47:41;12.13;;;6.23;;
3779;SDS011;1905;52.482;9.802;2023-09-07T02:50:10;12.73;;;5.97;;
3779;SDS011;1905;52.482;9.802;2023-09-07T02:52:39;11.60;;;6.03;;
3779;SDS011;1905;52.482;9.802;2023-09-07T02:55:06;12.63;;;6.30;;
3779;SDS011;1905;52.482;9.802;2023-09-07T02:57:35;14.40;;;6.87;;
3779;SDS011;1905;52.482;9.802;2023-09-07T03:00:03;13.60;;;5.70;;
3779;SDS011;1905;52.482;9.802;2023-09-07T03:02:37;11.83;;;5.00;;
3779;SDS011;1905;52.482;9.802;2023-09-07T03:05:05;10.87;;;5.70;;
3779;SDS011;1905;52.482;9.802;2023-09-07T03:07:34;11.80;;;5.33;;
3779;SDS011;1905;52.482;9.802;2023-09-07T03:10:02;10.67;;;5.70;;
3779;SDS011;1905;52.482;9.802;2023-09-07T03:12:30;11.87;;;5.33;;
3779;SDS011;1905;52.482;9.802;2023-09-07T03:14:58;11.00;;;5.87;;
3779;SDS011;1905;52.482;9.802;2023-09-07T03:17:29;13.37;;;6.57;;
3779;SDS011;1905;52.482;9.802;2023-09-07T03:19:57;12.50;;;6.60;;
3779;SDS011;1905;52.482;9.802;2023-09-07T03:22:25;14.20;;;6.70;;
3779;SDS011;1905;52.482;9.802;2023-09-07T03:24:56;13.10;;;6.43;;
3779;SDS011;1905;52.482;9.802;2023-09-07T03:27:23;12.50;;;5.97;;
3779;SDS011;1905;52.482;9.802;2023-09-07T03:29:50;11.50;;;5.70;;
3779;SDS011;1905;52.482;9.802;2023-09-07T03:32:20;11.60;;;6.27;;
3779;SDS011;1905;52.482;9.802;2023-09-07T03:34:48;12.80;;;6.60;;
3779;SDS011;1905;52.482;9.802;2023-09-07T03:37:15;11.30;;;6.00;;
3779;SDS011;1905;52.482;9.802;2023-09-07T03:39:43;12.80;;;5.97;;
3779;SDS011;1905;52.482;9.802;2023-09-07T03:42:12;11.37;;;5.53;;
3779;SDS011;1905;52.482;9.802;2023-09-07T03:44:40;14.90;;;7.27;;
3779;SDS011;1905;52.482;9.802;2023-09-07T03:47:08;11.53;;;6.37;;
3779;SDS011;1905;52.482;9.802;2023-09-07T03:49:37;13.83;;;6.80;;
3779;SDS011;1905;52.482;9.802;2023-09-07T03:52:05;13.63;;;7.27;;
3779;SDS011;1905;52.482;9.802;2023-09-07T03:54:33;12.93;;;6.60;;
3779;SDS011;1905;52.482;9.802;2023-09-07T03:57:01;13.87;;;6.03;;
3779;SDS011;1905;52.482;9.802;2023-09-07T03:59:31;13.57;;;6.27;;
3779;SDS011;1905;52.482;9.802;2023-09-07T04:02:00;14.20;;;6.27;;
3779;SDS011;1905;52.482;9.802;2023-09-07T04:04:28;13.37;;;6.27;;
3779;SDS011;1905;52.482;9.802;2023-09-07T04:06:56;13.27;;;6.77;;
3779;SDS011;1905;52.482;9.802;2023-09-07T04:09:23;13.70;;;6.73;;
3779;SDS011;1905;52.482;9.802;2023-09-07T04:11:51;13.87;;;6.63;;
3779;SDS011;1905;52.482;9.802;2023-09-07T04:14:18;12.93;;;5.97;;
3779;SDS011;1905;52.482;9.802;2023-09-07T04:16:47;10.53;;;6.00;;
3779;SDS011;1905;52.482;9.802;2023-09-07T04:19:16;11.57;;;6.93;;
3779;SDS011;1905;52.482;9.802;2023-09-07T04:21:44;13.57;;;6.93;;
3779;SDS011;1905;52.482;9.802;2023-09-07T04:24:12;12.63;;;6.40;;
3779;SDS011;1905;52.482;9.802;2023-09-07T04:26:39;13.33;;;6.70;;
3779;SDS011;1905;52.482;9.802;2023-09-07T04:29:07;12.90;;;7.27;;
3779;SDS011;1905;52.482;9.802;2023-09-07T04:31:35;14.53;;;6.40;;
3779;SDS011;1905;52.482;9.802;2023-09-07T04:34:04;14.30;;;6.43;;
3779;SDS011;1905;52.482;9.802;2023-09-07T04:36:32;13.47;;;7.30;;
3779;SDS011;1905;52.482;9.802;2023-09-07T04:38:59;11.50;;;6.10;;
3779;SDS011;1905;52.482;9.802;2023-09-07T04:41:29;12.13;;;6.63;;
3779;SDS011;1905;52.482;9.802;2023-09-07T04:43:57;13.70;;;6.20;;
3779;SDS011;1905;52.482;9.802;2023-09-07T04:46:25;11.63;;;7.17;;
3779;SDS011;1905;52.482;9.802;2023-09-07T04:48:52;14.57;;;5.87;;
3779;SDS011;1905;52.482;9.802;2023-09-07T04:51:22;11.63;;;6.03;;
3779;SDS011;1905;52.482;9.802;2023-09-07T04:53:52;14.53;;;6.50;;
3779;SDS011;1905;52.482;9.802;2023-09-07T04:56:20;17.00;;;7.30;;
3779;SDS011;1905;52.482;9.802;2023-09-07T04:58:48;13.70;;;7.20;;
3779;SDS011;1905;52.482;9.802;2023-09-07T05:01:16;13.60;;;6.83;;
3779;SDS011;1905;52.482;9.802;2023-09-07T05:03:44;15.70;;;7.10;;
3779;SDS011;1905;52.482;9.802;2023-09-07T05:06:11;13.27;;;7.87;;
3779;SDS011;1905;52.482;9.802;2023-09-07T05:08:41;16.60;;;7.90;;
3779;SDS011;1905;52.482;9.802;2023-09-07T05:11:10;18.50;;;7.87;;
3779;SDS011;1905;52.482;9.802;2023-09-07T05:13:38;12.70;;;7.10;;
3779;SDS011;1905;52.482;9.802;2023-09-07T05:16:05;13.10;;;6.33;;
3779;SDS011;1905;52.482;9.802;2023-09-07T05:18:35;15.50;;;7.17;;
3779;SDS011;1905;52.482;9.802;2023-09-07T05:21:10;14.97;;;7.30;;
3779;SDS011;1905;52.482;9.802;2023-09-07T05:24:04;12.67;;;7.50;;
3779;SDS011;1905;52.482;9.802;2023-09-07T05:26:32;16.10;;;7.50;;
3779;SDS011;1905;52.482;9.802;2023-09-07T05:29:00;13.40;;;6.80;;
3779;SDS011;1905;52.482;9.802;2023-09-07T05:31:27;17.77;;;7.03;;
3779;SDS011;1905;52.482;9.802;2023-09-07T05:33:56;11.87;;;6.13;;
3779;SDS011;1905;52.482;9.802;2023-09-07T05:36:24;12.23;;;6.00;;
3779;SDS011;1905;52.482;9.802;2023-09-07T05:38:53;13.57;;;5.80;;
3779;SDS011;1905;52.482;9.802;2023-09-07T05:41:22;17.67;;;7.63;;
3779;SDS011;1905;52.482;9.802;2023-09-07T05:43:49;13.77;;;7.20;;
3779;SDS011;1905;52.482;9.802;2023-09-07T05:46:17;15.37;;;8.73;;
3779;SDS011;1905;52.482;9.802;2023-09-07T05:48:45;15.17;;;7.57;;
3779;SDS011;1905;52.482;9.802;2023-09-07T05:51:14;15.60;;;7.90;;
3779;SDS011;1905;52.482;9.802;2023-09-07T05:53:42;18.67;;;7.17;;
3779;SDS011;1905;52.482;9.802;2023-09-07T05:56:09;17.70;;;8.40;;
3779;SDS011;1905;52.482;9.802;2023-09-07T05:58:39;13.07;;;6.97;;
3779;SDS011;1905;52.482;9.802;2023-09-07T06:01:07;16.30;;;8.47;;
3779;SDS011;1905;52.482;9.802;2023-09-07T06:03:35;16.23;;;8.27;;
3779;SDS011;1905;52.482;9.802;2023-09-07T06:06:06;15.90;;;8.17;;
3779;SDS011;1905;52.482;9.802;2023-09-07T06:08:33;13.40;;;7.53;;
3779;SDS011;1905;52.482;9.802;2023-09-07T06:11:01;15.37;;;8.67;;
3779;SDS011;1905;52.482;9.802;2023-09-07T06:13:29;16.47;;;7.83;;
3779;SDS011;1905;52.482;9.802;2023-09-07T06:15:58;17.07;;;8.33;;
3779;SDS011;1905;52.482;9.802;2023-09-07T06:18:27;15.40;;;8.60;;
3779;SDS011;1905;52.482;9.802;2023-09-07T06:20:55;15.70;;;7.67;;
3779;SDS011;1905;52.482;9.802;2023-09-07T06:23:23;16.20;;;8.17;;
3779;SDS011;1905;52.482;9.802;2023-09-07T06:25:52;14.30;;;7.97;;
3779;SDS011;1905;52.482;9.802;2023-09-07T06:28:19;15.63;;;8.23;;
3779;SDS011;1905;52.482;9.802;2023-09-07T06:30:48;15.60;;;8.60;;
3779;SDS011;1905;52.482;9.802;2023-09-07T06:33:18;17.07;;;7.50;;
3779;SDS011;1905;52.482;9.802;2023-09-07T06:35:46;15.60;;;7.97;;
3779;SDS011;1905;52.482;9.802;2023-09-07T06:38:14;17.87;;;8.90;;
3779;SDS011;1905;52.482;9.802;2023-09-07T06:40:46;16.80;;;8.00;;
3779;SDS011;1905;52.482;9.802;2023-09-07T06:43:15;14.13;;;7.90;;
3779;SDS011;1905;52.482;9.802;2023-09-07T06:45:44;24.27;;;9.00;;
3779;SDS011;1905;52.482;9.802;2023-09-07T06:48:13;18.33;;;8.83;;
3779;SDS011;1905;52.482;9.802;2023-09-07T06:50:43;18.30;;;8.70;;
3779;SDS011;1905;52.482;9.802;2023-09-07T06:53:10;14.23;;;8.37;;
3779;SDS011;1905;52.482;9.802;2023-09-07T06:55:38;25.10;;;8.87;;
3779;SDS011;1905;52.482;9.802;2023-09-07T06:58:06;17.37;;;8.17;;
3779;SDS011;1905;52.482;9.802;2023-09-07T07:00:33;15.97;;;8.73;;
3779;SDS011;1905;52.482;9.802;2023-09-07T07:03:01;15.70;;;8.63;;
3779;SDS011;1905;52.482;9.802;2023-09-07T07:05:29;16.67;;;8.73;;
3779;SDS011;1905;52.482;9.802;2023-09-07T07:07:58;17.97;;;8.10;;
3779;SDS011;1905;52.482;9.802;2023-09-07T07:10:26;14.67;;;8.70;;
3779;SDS011;1905;52.482;9.802;2023-09-07T07:12:53;14.20;;;7.17;;
3779;SDS011;1905;52.482;9.802;2023-09-07T07:15:21;15.13;;;7.43;;
3779;SDS011;1905;52.482;9.802;2023-09-07T07:17:49;19.63;;;8.40;;
3779;SDS011;1905;52.482;9.802;2023-09-07T07:20:17;14.37;;;7.20;;
3779;SDS011;1905;52.482;9.802;2023-09-07T07:22:45;13.73;;;7.47;;
3779;SDS011;1905;52.482;9.802;2023-09-07T07:25:16;14.03;;;6.80;;
3779;SDS011;1905;52.482;9.802;2023-09-07T07:27:44;16.13;;;7.80;;
3779;SDS011;1905;52.482;9.802;2023-09-07T07:30:13;16.50;;;7.53;;
3779;SDS011;1905;52.482;9.802;2023-09-07T07:32:41;14.70;;;7.53;;
3779;SDS011;1905;52.482;9.802;2023-09-07T07:35:09;13.77;;;7.60;;
3779;SDS011;1905;52.482;9.802;2023-09-07T07:37:37;14.57;;;7.70;;
3779;SDS011;1905;52.482;9.802;2023-09-07T07:40:05;16.10;;;8.10;;
3779;SDS011;1905;52.482;9.802;2023-09-07T07:42:35;15.77;;;7.93;;
3779;SDS011;1905;52.482;9.802;2023-09-07T07:45:03;13.93;;;8.17;;
3779;SDS011;1905;52.482;9.802;2023-09-07T07:47:32;14.13;;;7.67;;
3779;SDS011;1905;52.482;9.802;2023-09-07T07:49:59;14.20;;;7.87;;
3779;SDS011;1905;52.482;9.802;2023-09-07T07:52:28;12.63;;;6.70;;
3779;SDS011;1905;52.482;9.802;2023-09-07T07:54:57;14.20;;;6.70;;
3779;SDS011;1905;52.482;9.802;2023-09-07T07:57:25;17.23;;;7.30;;
3779;SDS011;1905;52.482;9.802;2023-09-07T07:59:55;15.13;;;7.20;;
3779;SDS011;1905;52.482;9.802;2023-09-07T08:02:24;14.90;;;7.07;;
3779;SDS011;1905;52.482;9.802;2023-09-07T08:04:52;15.07;;;7.50;;
3779;SDS011;1905;52.482;9.802;2023-09-07T08:07:20;15.73;;;7.50;;
3779;SDS011;1905;52.482;9.802;2023-09-07T08:09:48;14.37;;;7.17;;
3779;SDS011;1905;52.482;9.802;2023-09-07T08:12:17;14.10;;;7.30;;
3779;SDS011;1905;52.482;9.802;2023-09-07T08:14:45;12.10;;;6.83;;
3779;SDS011;1905;52.482;9.802;2023-09-07T08:17:14;14.57;;;6.97;;
3779;SDS011;1905;52.482;9.802;2023-09-07T08:19:42;15.80;;;7.03;;
3779;SDS011;1905;52.482;9.802;2023-09-07T08:22:10;13.80;;;6.53;;
3779;SDS011;1905;52.482;9.802;2023-09-07T08:24:39;14.33;;;6.97;;
3779;SDS011;1905;52.482;9.802;2023-09-07T08:27:08;13.57;;;6.70;;
3779;SDS011;1905;52.482;9.802;2023-09-07T08:29:38;15.13;;;6.80;;
3779;SDS011;1905;52.482;9.802;2023-09-07T08:32:06;14.63;;;7.77;;
3779;SDS011;1905;52.482;9.802;2023-09-07T08:34:35;13.07;;;6.43;;
3779;SDS011;1905;52.482;9.802;2023-09-07T08:37:06;12.57;;;7.43;;
3779;SDS011;1905;52.482;9.802;2023-09-07T08:39:34;13.80;;;7.80;;
3779;SDS011;1905;52.482;9.802;2023-09-07T08:42:05;11.80;;;6.67;;
3779;SDS011;1905;52.482;9.802;2023-09-07T08:44:34;12.30;;;6.70;;
3779;SDS011;1905;52.482;9.802;2023-09-07T08:47:05;10.67;;;5.97;;
3779;SDS011;1905;52.482;9.802;2023-09-07T08:49:33;13.03;;;6.13;;
3779;SDS011;1905;52.482;9.802;2023-09-07T08:52:02;12.13;;;6.40;;
3779;SDS011;1905;52.482;9.802;2023-09-07T08:54:31;14.13;;;6.67;;
3779;SDS011;1905;52.482;9.802;2023-09-07T08:57:02;13.57;;;6.90;;
3779;SDS011;1905;52.482;9.802;2023-09-07T08:59:31;12.67;;;6.90;;
3779;SDS011;1905;52.482;9.802;2023-09-07T09:01:58;12.40;;;7.10;;
3779;SDS011;1905;52.482;9.802;2023-09-07T09:04:27;12.80;;;6.57;;
3779;SDS011;1905;52.482;9.802;2023-09-07T09:06:55;13.40;;;6.13;;
3779;SDS011;1905;52.482;9.802;2023-09-07T09:09:24;19.40;;;6.70;;
3779;SDS011;1905;52.482;9.802;2023-09-07T09:11:52;13.67;;;7.10;;
3779;SDS011;1905;52.482;9.802;2023-09-07T09:14:19;13.77;;;6.53;;
3779;SDS011;1905;52.482;9.802;2023-09-07T09:16:48;14.07;;;6.70;;
3779;SDS011;1905;52.482;9.802;2023-09-07T09:19:17;10.43;;;5.50;;
3779;SDS011;1905;52.482;9.802;2023-09-07T09:21:45;12.73;;;6.23;;
3779;SDS011;1905;52.482;9.802;2023-09-07T09:24:13;11.10;;;5.63;;
3779;SDS011;1905;52.482;9.802;2023-09-07T09:26:43;15.50;;;6.10;;
3779;SDS011;1905;52.482;9.802;2023-09-07T09:29:10;13.90;;;5.67;;
3779;SDS011;1905;52.482;9.802;2023-09-07T09:31:40;11.30;;;5.67;;
3779;SDS011;1905;52.482;9.802;2023-09-07T09:34:09;11.50;;;6.00;;
3779;SDS011;1905;52.482;9.802;2023-09-07T09:36:36;10.80;;;5.40;;
3779;SDS011;1905;52.482;9.802;2023-09-07T09:39:06;15.03;;;6.90;;
3779;SDS011;1905;52.482;9.802;2023-09-07T09:41:35;11.17;;;5.70;;
3779;SDS011;1905;52.482;9.802;2023-09-07T09:44:06;10.97;;;5.70;;
3779;SDS011;1905;52.482;9.802;2023-09-07T09:46:35;11.70;;;5.43;;
3779;SDS011;1905;52.482;9.802;2023-09-07T09:49:05;13.87;;;6.57;;
3779;SDS011;1905;52.482;9.802;2023-09-07T09:51:37;10.43;;;5.50;;
3779;SDS011;1905;52.482;9.802;2023-09-07T09:54:09;12.10;;;5.83;;
3779;SDS011;1905;52.482;9.802;2023-09-07T09:56:38;13.13;;;5.93;;
3779;SDS011;1905;52.482;9.802;2023-09-07T09:59:07;13.20;;;5.77;;
3779;SDS011;1905;52.482;9.802;2023-09-07T10:01:38;13.03;;;5.37;;
3779;SDS011;1905;52.482;9.802;2023-09-07T10:04:11;11.50;;;6.37;;
3779;SDS011;1905;52.482;9.802;2023-09-07T10:06:49;13.83;;;6.30;;
3779;SDS011;1905;52.482;9.802;2023-09-07T10:09:18;9.37;;;5.00;;
3779;SDS011;1905;52.482;9.802;2023-09-07T10:11:50;13.60;;;6.57;;
3779;SDS011;1905;52.482;9.802;2023-09-07T10:14:21;10.33;;;6.37;;
3779;SDS011;1905;52.482;9.802;2023-09-07T10:16:49;13.77;;;5.90;;
3779;SDS011;1905;52.482;9.802;2023-09-07T10:19:19;14.53;;;5.50;;
3779;SDS011;1905;52.482;9.802;2023-09-07T10:21:48;11.13;;;6.20;;
3779;SDS011;1905;52.482;9.802;2023-09-07T10:24:24;11.23;;;5.70;;
3779;SDS011;1905;52.482;9.802;2023-09-07T10:26:59;13.83;;;6.03;;
3779;SDS011;1905;52.482;9.802;2023-09-07T10:29:39;11.50;;;5.63;;
3779;SDS011;1905;52.482;9.802;2023-09-07T10:32:08;13.40;;;6.63;;
3779;SDS011;1905;52.482;9.802;2023-09-07T10:34:41;10.77;;;5.40;;
3779;SDS011;1905;52.482;9.802;2023-09-07T10:37:12;10.73;;;5.67;;
3779;SDS011;1905;52.482;9.802;2023-09-07T10:39:41;13.63;;;6.60;;
3779;SDS011;1905;52.482;9.802;2023-09-07T10:42:19;11.03;;;5.70;;
3779;SDS011;1905;52.482;9.802;2023-09-07T10:44:48;10.57;;;5.23;;
3779;SDS011;1905;52.482;9.802;2023-09-07T10:47:16;12.70;;;6.20;;
3779;SDS011;1905;52.482;9.802;2023-09-07T10:49:44;10.70;;;5.23;;
3779;SDS011;1905;52.482;9.802;2023-09-07T10:52:12;10.80;;;5.50;;
3779;SDS011;1905;52.482;9.802;2023-09-07T10:54:40;11.60;;;6.10;;
3779;SDS011;1905;52.482;9.802;2023-09-07T10:57:07;17.10;;;5.70;;
3779;SDS011;1905;52.482;9.802;2023-09-07T10:59:36;11.40;;;6.23;;
3779;SDS011;1905;52.482;9.802;2023-09-07T11:02:05;14.00;;;6.20;;
3779;SDS011;1905;52.482;9.802;2023-09-07T11:04:34;13.70;;;6.07;;
3779;SDS011;1905;52.482;9.802;2023-09-07T11:07:01;10.63;;;5.60;;
3779;SDS011;1905;52.482;9.802;2023-09-07T11:09:30;12.53;;;6.70;;
3779;SDS011;1905;52.482;9.802;2023-09-07T11:12:03;11.63;;;5.30;;
3779;SDS011;1905;52.482;9.802;2023-09-07T11:14:31;11.53;;;5.53;;
3779;SDS011;1905;52.482;9.802;2023-09-07T11:17:00;12.63;;;5.70;;
3779;SDS011;1905;52.482;9.802;2023-09-07T11:19:32;13.40;;;5.77;;
3779;SDS011;1905;52.482;9.802;2023-09-07T11:22:00;12.67;;;5.43;;
3779;SDS011;1905;52.482;9.802;2023-09-07T11:24:30;11.63;;;6.17;;
3779;SDS011;1905;52.482;9.802;2023-09-07T11:26:59;16.03;;;6.40;;
3779;SDS011;1905;52.482;9.802;2023-09-07T11:29:27;10.30;;;5.30;;
3779;SDS011;1905;52.482;9.802;2023-09-07T11:32:05;9.93;;;5.60;;
3779;SDS011;1905;52.482;9.802;2023-09-07T11:34:35;13.40;;;5.40;;
3779;SDS011;1905;52.482;9.802;2023-09-07T11:37:13;10.83;;;5.67;;
3779;SDS011;1905;52.482;9.802;2023-09-07T11:39:41;11.87;;;6.33;;
3779;SDS011;1905;52.482;9.802;2023-09-07T11:42:08;15.63;;;5.77;;
3779;SDS011;1905;52.482;9.802;2023-09-07T11:44:36;11.33;;;5.60;;
3779;SDS011;1905;52.482;9.802;2023-09-07T11:47:04;12.93;;;5.47;;
3779;SDS011;1905;52.482;9.802;2023-09-07T11:49:32;13.80;;;5.50;;
3779;SDS011;1905;52.482;9.802;2023-09-07T11:52:01;16.03;;;5.80;;
3779;SDS011;1905;52.482;9.802;2023-09-07T11:54:28;11.17;;;5.93;;
3779;SDS011;1905;52.482;9.802;2023-09-07T11:56:56;12.27;;;5.60;;
3779;SDS011;1905;52.482;9.802;2023-09-07T11:59:24;10.40;;;5.10;;
3779;SDS011;1905;52.482;9.802;2023-09-07T12:01:52;12.40;;;5.80;;
3779;SDS011;1905;52.482;9.802;2023-09-07T12:04:19;10.37;;;5.57;;
3779;SDS011;1905;52.482;9.802;2023-09-07T12:06:47;10.57;;;5.97;;
3779;SDS011;1905;52.482;9.802;2023-09-07T12:09:16;9.20;;;5.33;;
3779;SDS011;1905;52.482;9.802;2023-09-07T12:11:44;12.43;;;5.80;;
3779;SDS011;1905;52.482;9.802;2023-09-07T12:14:11;11.50;;;5.70;;
3779;SDS011;1905;52.482;9.802;2023-09-07T12:16:39;12.73;;;5.23;;
3779;SDS011;1905;52.482;9.802;2023-09-07T12:19:07;13.23;;;6.20;;
3779;SDS011;1905;52.482;9.802;2023-09-07T12:21:35;14.60;;;5.90;;
3779;SDS011;1905;52.482;9.802;2023-09-07T12:24:03;13.13;;;5.47;;
3779;SDS011;1905;52.482;9.802;2023-09-07T12:26:33;10.27;;;5.63;;
3779;SDS011;1905;52.482;9.802;2023-09-07T12:29:01;15.90;;;4.87;;
3779;SDS011;1905;52.482;9.802;2023-09-07T12:31:28;11.07;;;5.97;;
3779;SDS011;1905;52.482;9.802;2023-09-07T12:33:57;14.13;;;6.33;;
3779;SDS011;1905;52.482;9.802;2023-09-07T12:36:25;13.03;;;5.90;;
3779;SDS011;1905;52.482;9.802;2023-09-07T12:38:56;13.67;;;6.40;;
3779;SDS011;1905;52.482;9.802;2023-09-07T12:41:27;12.73;;;5.73;;
3779;SDS011;1905;52.482;9.802;2023-09-07T12:43:56;12.27;;;5.97;;
3779;SDS011;1905;52.482;9.802;2023-09-07T12:46:25;11.80;;;5.80;;
3779;SDS011;1905;52.482;9.802;2023-09-07T12:48:52;11.40;;;5.93;;
3779;SDS011;1905;52.482;9.802;2023-09-07T12:51:20;12.20;;;5.80;;
3779;SDS011;1905;52.482;9.802;2023-09-07T12:53:48;11.70;;;5.33;;
3779;SDS011;1905;52.482;9.802;2023-09-07T12:56:15;11.07;;;5.20;;
3779;SDS011;1905;52.482;9.802;2023-09-07T12:58:44;10.47;;;5.47;;
3779;SDS011;1905;52.482;9.802;2023-09-07T13:01:13;8.83;;;4.50;;
3779;SDS011;1905;52.482;9.802;2023-09-07T13:03:42;11.13;;;5.53;;
3779;SDS011;1905;52.482;9.802;2023-09-07T13:06:10;10.43;;;5.30;;
3779;SDS011;1905;52.482;9.802;2023-09-07T13:08:38;16.17;;;5.80;;
3779;SDS011;1905;52.482;9.802;2023-09-07T13:11:06;10.80;;;5.73;;
3779;SDS011;1905;52.482;9.802;2023-09-07T13:13:33;12.50;;;5.33;;
3779;SDS011;1905;52.482;9.802;2023-09-07T13:16:01;10.37;;;5.43;;
3779;SDS011;1905;52.482;9.802;2023-09-07T13:18:30;12.13;;;5.40;;
3779;SDS011;1905;52.482;9.802;2023-09-07T13:20:58;12.20;;;4.80;;
3779;SDS011;1905;52.482;9.802;2023-09-07T13:23:27;9.10;;;4.30;;
3779;SDS011;1905;52.482;9.802;2023-09-07T13:25:55;10.40;;;4.83;;
3779;SDS011;1905;52.482;9.802;2023-09-07T13:28:23;11.20;;;5.20;;
3779;SDS011;1905;52.482;9.802;2023-09-07T13:30:51;9.23;;;4.73;;
3779;SDS011;1905;52.482;9.802;2023-09-07T13:33:18;11.87;;;5.90;;
3779;SDS011;1905;52.482;9.802;2023-09-07T13:35:47;11.57;;;5.50;;
3779;SDS011;1905;52.482;9.802;2023-09-07T13:38:15;12.40;;;5.23;;
3779;SDS011;1905;52.482;9.802;2023-09-07T13:40:42;12.43;;;5.13;;
3779;SDS011;1905;52.482;9.802;2023-09-07T13:43:10;9.63;;;4.80;;
3779;SDS011;1905;52.482;9.802;2023-09-07T13:45:38;10.70;;;5.40;;
3779;SDS011;1905;52.482;9.802;2023-09-07T13:48:06;9.30;;;4.50;;
3779;SDS011;1905;52.482;9.802;2023-09-07T13:50:33;10.80;;;5.63;;
3779;SDS011;1905;52.482;9.802;2023-09-07T13:53:03;12.57;;;5.00;;
3779;SDS011;1905;52.482;9.802;2023-09-07T13:55:31;10.90;;;5.60;;
3779;SDS011;1905;52.482;9.802;2023-09-07T13:57:58;10.10;;;4.67;;
3779;SDS011;1905;52.482;9.802;2023-09-07T14:00:26;9.30;;;4.57;;
3779;SDS011;1905;52.482;9.802;2023-09-07T14:02:54;10.90;;;5.03;;
3779;SDS011;1905;52.482;9.802;2023-09-07T14:05:21;11.33;;;4.77;;
3779;SDS011;1905;52.482;9.802;2023-09-07T14:07:49;12.37;;;5.20;;
3779;SDS011;1905;52.482;9.802;2023-09-07T14:10:18;10.50;;;4.60;;
3779;SDS011;1905;52.482;9.802;2023-09-07T14:12:46;9.60;;;4.43;;
3779;SDS011;1905;52.482;9.802;2023-09-07T14:15:14;12.30;;;5.37;;
3779;SDS011;1905;52.482;9.802;2023-09-07T14:17:43;10.07;;;5.10;;
3779;SDS011;1905;52.482;9.802;2023-09-07T14:20:11;10.13;;;5.00;;
3779;SDS011;1905;52.482;9.802;2023-09-07T14:22:39;8.97;;;4.10;;
3779;SDS011;1905;52.482;9.802;2023-09-07T14:25:07;12.90;;;4.57;;
3779;SDS011;1905;52.482;9.802;2023-09-07T14:27:36;10.00;;;4.80;;
3779;SDS011;1905;52.482;9.802;2023-09-07T14:30:04;10.20;;;4.80;;
3779;SDS011;1905;52.482;9.802;2023-09-07T14:32:32;10.93;;;5.10;;
3779;SDS011;1905;52.482;9.802;2023-09-07T14:35:00;10.23;;;4.40;;
3779;SDS011;1905;52.482;9.802;2023-09-07T14:37:28;14.60;;;4.90;;
3779;SDS011;1905;52.482;9.802;2023-09-07T14:39:56;8.10;;;4.17;;
3779;SDS011;1905;52.482;9.802;2023-09-07T14:42:25;10.53;;;4.30;;
3779;SDS011;1905;52.482;9.802;2023-09-07T14:44:54;9.43;;;4.37;;
3779;SDS011;1905;52.482;9.802;2023-09-07T14:47:23;9.33;;;4.40;;
3779;SDS011;1905;52.482;9.802;2023-09-07T14:49:52;9.57;;;4.67;;
3779;SDS011;1905;52.482;9.802;2023-09-07T14:52:20;8.30;;;4.20;;
3779;SDS011;1905;52.482;9.802;2023-09-07T14:54:50;8.97;;;4.20;;
3779;SDS011;1905;52.482;9.802;2023-09-07T14:57:18;11.77;;;4.17;;
3779;SDS011;1905;52.482;9.802;2023-09-07T14:59:46;8.73;;;4.40;;
3779;SDS011;1905;52.482;9.802;2023-09-07T15:02:14;9.37;;;4.03;;
3779;SDS011;1905;52.482;9.802;2023-09-07T15:04:41;8.47;;;4.07;;
3779;SDS011;1905;52.482;9.802;2023-09-07T15:07:11;9.03;;;4.07;;
3779;SDS011;1905;52.482;9.802;2023-09-07T15:09:38;11.50;;;4.67;;
3779;SDS011;1905;52.482;9.802;2023-09-07T15:12:06;10.17;;;4.27;;